Time;durP1;ratioP1;P1;durP2;ratioP2;P2;SDS_P1;SDS_P2;PMS_P1;PMS_P2;Temp;Humidity;BMP_temperature;BMP_pressure;BME280_temperature;BME280_humidity;BME280_pressure;Samples;Min_cycle;Max_cycle;Signal;HPM_P1;HPM_P2
2024/01/02 00:01:27;;;;;;;15.80;15.20;;;21.20;50.00;;;;;;4994321;28;20493;-68
2024/01/02 00:03:53;;;;;;;15.00;14.60;;;21.10;49.90;;;;;;4994375;28;20444;-68
2024/01/02 00:06:20;;;;;;;15.23;14.70;;;21.10;50.00;;;;;;4994389;28;20478;-68
2024/01/02 00:08:47;;;;;;;15.60;15.10;;;21.10;50.00;;;;;;4978320;28;20483;-68
2024/01/02 00:11:14;;;;;;;16.00;15.50;;;21.10;50.10;;;;;;4974586;28;20492;-68
2024/01/02 00:13:41;;;;;;;14.57;14.17;;;21.10;50.10;;;;;;4974855;28;20444;-68
2024/01/02 00:16:09;;;;;;;15.40;14.90;;;21.10;50.20;;;;;;4974780;28;20483;-68
2024/01/02 00:18:36;;;;;;;16.83;16.20;;;21.00;50.10;;;;;;4974970;28;20486;-68
2024/01/02 00:21:03;;;;;;;14.80;14.30;;;21.00;50.10;;;;;;4990586;28;20862;-68
2024/01/02 00:23:30;;;;;;;14.60;14.20;;;21.00;50.10;;;;;;4993944;28;20869;-68
2024/01/02 00:25:57;;;;;;;15.00;14.50;;;21.00;50.70;;;;;;4993968;28;20486;-68
2024/01/02 00:28:24;;;;;;;14.70;14.30;;;21.00;50.20;;;;;;4993964;28;20478;-68
2024/01/02 00:30:51;;;;;;;14.40;14.00;;;21.00;50.20;;;;;;4993656;28;20519;-68
2024/01/02 00:33:19;;;;;;;14.97;14.47;;;21.00;50.80;;;;;;4976801;28;20484;-68
2024/01/02 00:35:46;;;;;;;14.90;14.50;;;21.00;50.20;;;;;;4974240;28;20996;-68
2024/01/02 00:38:13;;;;;;;14.60;14.20;;;21.00;50.30;;;;;;4974445;28;20882;-68
2024/01/02 00:40:40;;;;;;;14.17;13.77;;;20.90;50.20;;;;;;4982784;28;20513;-68
2024/01/02 00:43:07;;;;;;;14.40;14.00;;;20.90;50.20;;;;;;4993502;28;20506;-69
2024/01/02 00:45:34;;;;;;;14.47;13.97;;;20.90;50.30;;;;;;4993726;28;20478;-68
2024/01/02 00:48:01;;;;;;;14.70;14.30;;;20.90;50.20;;;;;;4993592;28;20470;-68
2024/01/02 00:50:29;;;;;;;15.43;14.93;;;20.90;50.30;;;;;;4991236;28;21103;-68
2024/01/02 00:52:56;;;;;;;15.07;14.53;;;20.90;50.40;;;;;;4993322;28;20549;-68
2024/01/02 00:55:24;;;;;;;14.63;14.23;;;20.90;50.40;;;;;;4993497;28;20491;-68
2024/01/02 00:57:51;;;;;;;14.80;14.23;;;20.90;50.40;;;;;;4993464;28;20482;-68
2024/01/02 01:00:18;;;;;;;14.70;14.30;;;20.90;50.30;;;;;;4974031;28;20967;-68
2024/01/02 01:02:45;;;;;;;14.90;14.50;;;20.90;50.90;;;;;;4973626;28;20500;-68
2024/01/02 01:05:12;;;;;;;15.47;14.97;;;20.90;50.50;;;;;;4973843;28;20448;-68
2024/01/02 01:07:40;;;;;;;15.10;14.60;;;20.90;50.50;;;;;;4973839;28;20475;-68
2024/01/02 01:10:08;;;;;;;14.60;14.20;;;20.80;50.40;;;;;;4990477;28;20518;-68
2024/01/02 01:12:35;;;;;;;14.57;14.17;;;20.80;50.50;;;;;;4992695;28;21007;-68
2024/01/02 01:15:01;;;;;;;15.93;15.43;;;20.80;50.50;;;;;;4993384;28;20889;-68
2024/01/02 01:17:29;;;;;;;15.00;14.60;;;20.80;50.50;;;;;;4992986;28;20513;-68
2024/01/02 01:19:56;;;;;;;14.90;14.40;;;20.80;50.60;;;;;;4992166;28;20546;-68
2024/01/02 01:22:23;;;;;;;15.60;15.10;;;20.80;50.60;;;;;;4973320;28;20475;-68
2024/01/02 01:24:51;;;;;;;15.20;14.70;;;20.80;50.60;;;;;;4973498;28;20475;-68
2024/01/02 01:27:18;;;;;;;15.00;14.50;;;20.80;50.70;;;;;;4973347;28;20926;-68
2024/01/02 01:29:45;;;;;;;14.60;14.20;;;20.80;50.60;;;;;;4973279;28;20992;-68
2024/01/02 01:32:13;;;;;;;14.47;14.07;;;20.70;50.60;;;;;;4974465;28;20893;-68
2024/01/02 01:34:39;;;;;;;15.10;14.60;;;20.70;50.60;;;;;;4991053;28;20522;-68
2024/01/02 01:37:06;;;;;;;20.30;19.70;;;20.80;50.70;;;;;;4992691;28;20471;-68
2024/01/02 01:39:33;;;;;;;16.27;15.80;;;20.70;50.60;;;;;;4992550;28;20793;-68
2024/01/02 01:42:02;;;;;;;16.17;15.77;;;20.70;50.60;;;;;;4992379;28;20893;-68
2024/01/02 01:44:29;;;;;;;15.40;15.00;;;20.70;50.60;;;;;;4988336;28;20546;-68
2024/01/02 01:46:56;;;;;;;15.10;14.70;;;20.70;50.60;;;;;;4972640;28;20448;-68
2024/01/02 01:49:23;;;;;;;15.07;14.67;;;20.70;50.70;;;;;;4973058;28;20479;-68
2024/01/02 01:51:52;;;;;;;15.27;14.87;;;20.70;50.70;;;;;;4972736;28;20989;-68
2024/01/02 01:54:20;;;;;;;14.97;14.57;;;20.70;50.80;;;;;;4973106;28;20514;-68
2024/01/02 01:56:47;;;;;;;15.40;14.90;;;20.70;50.80;;;;;;4981110;28;20471;-68
2024/01/02 01:59:16;;;;;;;15.10;14.70;;;20.70;50.80;;;;;;4992357;28;20521;-68
2024/01/02 02:01:44;;;;;;;15.87;15.37;;;20.70;50.80;;;;;;4992292;28;20487;-68
2024/01/02 02:04:12;;;;;;;15.73;15.33;;;20.70;50.90;;;;;;4992493;28;20486;-68
2024/01/02 02:06:38;;;;;;;15.53;15.03;;;20.70;50.80;;;;;;4992320;28;20446;-68
2024/01/02 02:09:05;;;;;;;14.80;14.40;;;20.70;50.90;;;;;;4987190;28;20482;-68
2024/01/02 02:11:34;;;;;;;15.30;14.80;;;20.60;50.80;;;;;;4990162;28;20510;-69
2024/01/02 02:14:01;;;;;;;14.23;13.83;;;20.60;50.90;;;;;;4992388;28;20481;-68
2024/01/02 02:16:29;;;;;;;15.47;15.07;;;20.70;51.00;;;;;;4992414;28;20550;-68
2024/01/02 02:18:56;;;;;;;15.00;14.50;;;20.70;51.00;;;;;;4992125;28;20504;-68
2024/01/02 02:21:23;;;;;;;15.20;14.80;;;20.60;50.90;;;;;;4976059;28;20479;-68
2024/01/02 02:23:52;;;;;;;14.73;14.33;;;20.60;50.90;;;;;;4972749;28;20972;-68
2024/01/02 02:26:18;;;;;;;15.00;14.60;;;20.60;50.90;;;;;;4972629;28;20539;-68
2024/01/02 02:28:45;;;;;;;15.13;14.53;;;20.60;51.00;;;;;;4972684;28;20475;-68
2024/01/02 02:31:12;;;;;;;15.00;14.60;;;20.60;51.00;;;;;;4972357;28;20526;-68
2024/01/02 02:33:39;;;;;;;15.00;14.50;;;20.60;51.00;;;;;;4981765;28;20479;-68
2024/01/02 02:36:07;;;;;;;15.00;14.40;;;20.60;51.00;;;;;;4991334;28;20478;-68
2024/01/02 02:38:34;;;;;;;15.20;14.70;;;20.60;51.00;;;;;;4991946;28;20490;-68
2024/01/02 02:41:02;;;;;;;16.07;15.60;;;20.60;51.00;;;;;;4991879;28;20982;-68
2024/01/02 02:43:29;;;;;;;15.30;14.90;;;20.60;51.10;;;;;;4992229;28;20470;-68
2024/01/02 02:45:56;;;;;;;14.93;14.53;;;20.60;51.10;;;;;;4974420;28;20475;-68
2024/01/02 02:48:23;;;;;;;15.43;15.03;;;20.60;51.20;;;;;;4972474;28;20475;-68
2024/01/02 02:50:49;;;;;;;14.77;14.37;;;20.50;51.10;;;;;;4972327;28;21021;-68
2024/01/02 02:53:16;;;;;;;15.00;14.40;;;20.60;51.20;;;;;;4972751;28;20452;-68
2024/01/02 02:55:43;;;;;;;14.70;14.30;;;20.50;51.10;;;;;;4972516;28;20448;-68
2024/01/02 02:58:12;;;;;;;14.83;14.43;;;20.50;51.10;;;;;;4990329;28;20942;-68
2024/01/02 03:00:38;;;;;;;14.03;13.63;;;20.50;51.10;;;;;;4994842;28;20443;-68
2024/01/02 03:03:05;;;;;;;14.87;14.37;;;20.50;51.20;;;;;;4995722;28;20490;-68
2024/01/02 03:05:32;;;;;;;14.77;14.30;;;20.50;51.10;;;;;;4985078;28;20447;-68
2024/01/02 03:07:59;;;;;;;15.30;14.90;;;20.50;51.20;;;;;;4975930;28;20471;-68
2024/01/02 03:10:26;;;;;;;15.47;15.07;;;20.50;51.20;;;;;;4975852;28;20486;-68
2024/01/02 03:12:53;;;;;;;15.17;14.77;;;20.50;51.20;;;;;;4975953;28;20510;-68
2024/01/02 03:15:22;;;;;;;15.20;14.80;;;20.50;51.20;;;;;;4983857;28;20461;-68
2024/01/02 03:17:48;;;;;;;15.70;15.10;;;20.50;51.20;;;;;;4995243;28;20820;-68
2024/01/02 03:20:16;;;;;;;15.70;15.30;;;20.50;51.30;;;;;;4995480;28;20493;-68
2024/01/02 03:22:42;;;;;;;15.30;14.80;;;20.50;51.30;;;;;;4995179;28;20538;-68
2024/01/02 03:25:10;;;;;;;15.00;14.60;;;20.50;51.30;;;;;;4995152;28;20478;-68
2024/01/02 03:27:37;;;;;;;15.97;15.27;;;20.50;51.20;;;;;;4985728;28;20502;-68
2024/01/02 03:30:06;;;;;;;15.30;14.90;;;20.50;51.30;;;;;;4975754;28;20486;-67
2024/01/02 03:32:34;;;;;;;15.20;14.80;;;20.50;51.30;;;;;;4975444;28;20518;-68
2024/01/02 03:35:01;;;;;;;15.10;14.70;;;20.50;51.30;;;;;;4992032;28;20860;-67
2024/01/02 03:37:28;;;;;;;15.10;14.60;;;20.40;51.20;;;;;;4995015;28;20497;-68
2024/01/02 03:39:55;;;;;;;15.17;14.77;;;20.40;51.20;;;;;;4980749;28;20475;-68
2024/01/02 03:42:22;;;;;;;15.83;15.23;;;20.40;51.20;;;;;;4975358;28;20898;-68
2024/01/02 03:44:49;;;;;;;15.17;14.77;;;20.40;51.20;;;;;;4975355;28;20498;-68
2024/01/02 03:47:16;;;;;;;16.20;15.80;;;20.40;51.20;;;;;;4975401;28;20444;-68
2024/01/02 03:49:44;;;;;;;16.47;15.87;;;20.40;51.30;;;;;;4975570;28;20945;-68
2024/01/02 03:52:11;;;;;;;16.53;16.03;;;20.40;51.30;;;;;;4989739;28;20529;-68
2024/01/02 03:54:38;;;;;;;16.47;15.97;;;20.40;51.30;;;;;;4994565;28;20446;-68
2024/01/02 03:57:05;;;;;;;15.43;15.03;;;20.40;51.30;;;;;;4994624;28;20486;-68
2024/01/02 03:59:32;;;;;;;15.50;15.10;;;20.40;51.30;;;;;;4994599;28;20493;-68
2024/01/02 04:01:59;;;;;;;16.17;15.77;;;20.40;51.30;;;;;;4994357;28;20501;-68
2024/01/02 04:04:26;;;;;;;16.83;16.20;;;20.40;51.30;;;;;;4978775;28;20969;-68
2024/01/02 04:06:54;;;;;;;16.40;15.80;;;20.40;51.30;;;;;;4974963;28;20451;-68
2024/01/02 04:09:21;;;;;;;15.87;15.37;;;20.40;51.30;;;;;;4975011;28;20482;-68
2024/01/02 04:11:49;;;;;;;15.27;14.87;;;20.40;51.40;;;;;;4976644;28;20600;-67
2024/01/02 04:14:16;;;;;;;16.00;15.60;;;20.40;51.30;;;;;;4987268;28;20452;-67
2024/01/02 04:16:43;;;;;;;16.27;15.83;;;20.40;51.30;;;;;;5004700;28;20451;-68
2024/01/02 04:19:10;;;;;;;15.73;15.30;;;20.30;51.30;;;;;;5007625;28;20443;-67
2024/01/02 04:21:37;;;;;;;15.70;15.20;;;20.30;51.30;;;;;;5003942;28;20470;-68
2024/01/02 04:24:06;;;;;;;15.30;14.90;;;20.30;51.30;;;;;;5006624;28;20450;-68
2024/01/02 04:26:33;;;;;;;16.50;16.10;;;20.30;51.30;;;;;;5008504;28;20447;-67
2024/01/02 04:29:01;;;;;;;15.80;15.30;;;20.30;51.30;;;;;;4992633;28;20448;-68
2024/01/02 04:31:28;;;;;;;15.90;15.50;;;20.30;51.90;;;;;;4989517;28;20491;-68
2024/01/02 04:33:55;;;;;;;15.67;15.27;;;20.30;51.40;;;;;;4990851;28;20466;-67
2024/01/02 04:36:22;;;;;;;15.80;15.40;;;20.30;51.30;;;;;;4989639;28;20443;-68
2024/01/02 04:38:49;;;;;;;16.60;16.20;;;20.30;51.90;;;;;;4990206;28;20814;-68
2024/01/02 04:41:18;;;;;;;16.43;15.83;;;20.30;51.40;;;;;;5005735;28;20964;-68
2024/01/02 04:43:45;;;;;;;15.70;15.30;;;20.30;51.40;;;;;;5006072;28;20458;-67
2024/01/02 04:46:12;;;;;;;16.23;15.83;;;20.30;51.40;;;;;;5007866;28;20489;-68
2024/01/02 04:48:39;;;;;;;15.70;15.30;;;20.30;51.40;;;;;;4998442;28;20440;-68
2024/01/02 04:51:06;;;;;;;15.83;15.43;;;20.30;51.40;;;;;;4989119;28;20448;-68
2024/01/02 04:53:33;;;;;;;16.10;15.70;;;20.30;51.40;;;;;;4989556;28;20455;-67
2024/01/02 04:56:00;;;;;;;16.33;15.77;;;20.30;51.40;;;;;;4987872;28;20447;-68
2024/01/02 04:58:28;;;;;;;16.97;16.47;;;20.30;51.40;;;;;;4993220;28;20443;-67
2024/01/02 05:00:55;;;;;;;16.63;16.23;;;20.30;51.40;;;;;;5006162;28;20447;-68
2024/01/02 05:03:23;;;;;;;16.60;16.10;;;20.30;51.50;;;;;;5006068;28;20470;-69
2024/01/02 05:05:50;;;;;;;16.30;15.90;;;20.30;51.50;;;;;;5004522;28;20454;-69
2024/01/02 05:08:17;;;;;;;16.90;16.50;;;20.30;51.50;;;;;;5003819;28;20454;-69
2024/01/02 05:10:44;;;;;;;17.07;16.57;;;20.30;51.50;;;;;;5003220;28;20529;-68
2024/01/02 05:13:11;;;;;;;16.40;16.00;;;20.30;51.50;;;;;;5005641;28;20537;-69
2024/01/02 05:15:39;;;;;;;16.93;16.53;;;20.20;51.40;;;;;;5006534;28;20863;-68
2024/01/02 05:18:06;;;;;;;17.80;17.30;;;20.20;51.40;;;;;;5007133;28;20443;-68
2024/01/02 05:20:33;;;;;;;16.90;16.50;;;20.20;51.40;;;;;;5006908;28;20477;-68
2024/01/02 05:23:03;;;;;;;16.77;16.37;;;20.20;51.40;;;;;;5006204;28;20462;-68
2024/01/02 05:25:30;;;;;;;17.10;16.57;;;20.20;51.40;;;;;;5007100;28;20506;-67
2024/01/02 05:27:57;;;;;;;16.70;16.20;;;20.20;51.40;;;;;;5001125;28;20431;-68
2024/01/02 05:30:24;;;;;;;17.83;17.33;;;20.20;51.50;;;;;;4983744;28;20447;-68
2024/01/02 05:32:52;;;;;;;17.67;17.17;;;20.20;51.50;;;;;;4983827;28;20524;-68
2024/01/02 05:35:19;;;;;;;17.27;16.77;;;20.20;51.50;;;;;;4984352;28;20447;-68
2024/01/02 05:37:46;;;;;;;17.90;17.30;;;20.20;51.50;;;;;;4984029;28;20447;-68
2024/01/02 05:40:13;;;;;;;17.63;17.13;;;20.20;51.50;;;;;;4991473;28;20449;-68
2024/01/02 05:42:40;;;;;;;17.70;17.20;;;20.20;51.60;;;;;;5002571;28;20490;-68
2024/01/02 05:45:08;;;;;;;18.00;17.50;;;20.20;51.60;;;;;;5003561;28;20447;-68
2024/01/02 05:47:35;;;;;;;18.60;18.10;;;20.20;51.50;;;;;;5004603;28;20505;-68
2024/01/02 05:50:03;;;;;;;18.70;18.10;;;20.20;51.50;;;;;;4986143;28;20436;-67
2024/01/02 05:52:30;;;;;;;18.87;18.37;;;20.20;51.50;;;;;;4982842;28;20487;-68
2024/01/02 05:54:57;;;;;;;17.67;17.17;;;20.20;51.60;;;;;;4983110;28;20956;-68
2024/01/02 05:57:24;;;;;;;17.00;16.60;;;20.20;51.60;;;;;;4982718;28;20805;-68
2024/01/02 05:59:51;;;;;;;17.57;17.07;;;20.20;51.60;;;;;;4999113;28;20447;-68
2024/01/02 06:02:18;;;;;;;18.40;17.90;;;20.20;51.60;;;;;;4981609;28;20459;-67
2024/01/02 06:04:45;;;;;;;19.00;18.50;;;20.20;51.60;;;;;;4999790;28;20443;-68
2024/01/02 06:07:13;;;;;;;18.00;17.50;;;20.20;51.70;;;;;;5001125;28;20454;-68
2024/01/02 06:09:40;;;;;;;18.33;17.83;;;20.20;51.60;;;;;;5001614;28;20451;-68
2024/01/02 06:12:08;;;;;;;19.57;19.07;;;20.20;51.70;;;;;;4985903;28;20483;-69
2024/01/02 06:14:35;;;;;;;18.90;18.40;;;20.10;51.60;;;;;;5003141;28;20446;-68
2024/01/02 06:17:03;;;;;;;18.73;18.23;;;20.10;51.60;;;;;;5003606;28;20474;-68
2024/01/02 06:19:30;;;;;;;19.53;18.93;;;20.20;51.70;;;;;;5005575;28;20447;-68
2024/01/02 06:21:57;;;;;;;20.00;19.40;;;20.10;51.60;;;;;;4989242;28;20519;-69
2024/01/02 06:24:25;;;;;;;21.30;20.70;;;20.10;51.60;;;;;;4986005;28;20455;-68
2024/01/02 06:26:52;;;;;;;21.03;20.43;;;20.10;51.60;;;;;;4985675;28;20444;-68
2024/01/02 06:29:19;;;;;;;18.33;17.83;;;20.10;51.60;;;;;;4983885;28;20443;-68
2024/01/02 06:31:46;;;;;;;18.67;18.17;;;20.10;51.60;;;;;;4986208;28;20460;-68
2024/01/02 06:34:13;;;;;;;18.33;17.83;;;20.10;51.60;;;;;;4988589;28;20489;-68
2024/01/02 06:36:40;;;;;;;18.80;18.20;;;20.10;51.60;;;;;;4989756;28;20475;-68
2024/01/02 06:39:07;;;;;;;18.70;18.20;;;20.10;51.60;;;;;;4989389;28;20475;-67
2024/01/02 06:41:35;;;;;;;17.40;16.90;;;20.10;51.60;;;;;;4988673;28;20472;-68
2024/01/02 06:44:02;;;;;;;18.43;17.93;;;20.10;51.60;;;;;;4989179;28;20448;-68
2024/01/02 06:46:29;;;;;;;18.47;17.87;;;20.10;51.60;;;;;;4991135;28;20787;-67
2024/01/02 06:48:56;;;;;;;18.13;17.63;;;20.10;51.50;;;;;;5008562;28;20473;-68
2024/01/02 06:51:23;;;;;;;19.83;18.57;;;20.10;51.60;;;;;;5007432;28;20514;-67
2024/01/02 06:53:50;;;;;;;23.00;21.10;;;20.20;53.40;;;;;;5007886;28;20482;-68
2024/01/02 06:56:17;;;;;;;21.93;20.33;;;20.20;57.80;;;;;;5001476;28;20463;-68
2024/01/02 06:58:46;;;;;;;22.83;21.40;;;20.20;59.20;;;;;;4988491;28;20451;-70
2024/01/02 07:01:15;;;;;;;25.73;23.53;;;20.20;60.60;;;;;;4981522;28;20495;-67
2024/01/02 07:03:42;;;;;;;22.33;20.40;;;20.30;62.60;;;;;;4995906;28;20438;-65
2024/01/02 07:06:09;;;;;;;23.27;21.40;;;20.30;63.00;;;;;;4997797;28;20482;-65
2024/01/02 07:08:36;;;;;;;22.70;21.13;;;20.30;61.90;;;;;;4997847;28;20509;-66
2024/01/02 07:11:04;;;;;;;22.03;20.43;;;20.20;60.70;;;;;;4998586;28;20980;-66
2024/01/02 07:13:31;;;;;;;20.93;19.23;;;20.20;59.80;;;;;;4999212;28;20518;-65
2024/01/02 07:15:59;;;;;;;23.83;21.60;;;20.20;59.20;;;;;;4999788;28;20481;-65
2024/01/02 07:18:28;;;;;;;21.63;20.13;;;20.20;58.70;;;;;;4998895;28;20446;-66
2024/01/02 07:20:55;;;;;;;20.50;19.30;;;20.20;58.40;;;;;;4998214;28;20451;-65
2024/01/02 07:23:21;;;;;;;20.93;19.93;;;20.20;58.00;;;;;;4998621;28;20473;-64
2024/01/02 07:25:48;;;;;;;22.90;21.40;;;20.20;57.60;;;;;;4998195;28;20475;-65
2024/01/02 07:28:15;;;;;;;21.17;19.70;;;20.20;57.30;;;;;;4998728;28;20439;-66
2024/01/02 07:30:42;;;;;;;20.80;19.60;;;20.20;57.00;;;;;;4999017;28;20976;-65
2024/01/02 07:33:10;;;;;;;21.37;19.03;;;20.20;56.80;;;;;;4999113;28;20514;-66
2024/01/02 07:35:37;;;;;;;21.87;20.53;;;20.10;56.40;;;;;;4998914;28;20482;-66
2024/01/02 07:38:04;;;;;;;21.30;20.10;;;20.20;56.30;;;;;;4998530;28;20478;-65
2024/01/02 07:40:32;;;;;;;20.13;19.10;;;20.20;56.10;;;;;;4998368;28;20489;-65
2024/01/02 07:43:00;;;;;;;19.90;18.90;;;20.10;55.80;;;;;;4999097;28;20840;-65
2024/01/02 07:45:27;;;;;;;20.73;19.53;;;20.10;55.60;;;;;;4998494;28;20452;-65
2024/01/02 07:47:54;;;;;;;20.03;19.00;;;20.10;55.40;;;;;;4999817;28;20505;-66
2024/01/02 07:50:22;;;;;;;20.70;19.47;;;20.10;55.30;;;;;;4998902;28;20490;-65
2024/01/02 07:52:49;;;;;;;20.47;19.67;;;20.10;55.20;;;;;;4998488;28;20518;-65
2024/01/02 07:55:16;;;;;;;19.23;18.53;;;20.10;55.00;;;;;;4998868;28;20993;-66
2024/01/02 07:57:43;;;;;;;20.87;19.63;;;20.10;54.90;;;;;;4999015;28;20478;-66
2024/01/02 08:00:11;;;;;;;20.73;19.83;;;20.10;54.80;;;;;;4999383;28;20474;-65
2024/01/02 08:02:40;;;;;;;21.30;20.33;;;20.10;54.70;;;;;;4999075;28;20467;-66
2024/01/02 08:05:07;;;;;;;20.57;19.73;;;20.10;54.60;;;;;;4999245;28;20956;-65
2024/01/02 08:07:35;;;;;;;20.67;19.77;;;20.10;54.40;;;;;;4998665;28;20517;-66
2024/01/02 08:10:03;;;;;;;19.10;18.40;;;20.10;54.40;;;;;;4998870;28;20827;-65
2024/01/02 08:12:30;;;;;;;19.90;18.83;;;20.10;54.30;;;;;;4998471;28;20553;-65
2024/01/02 08:14:57;;;;;;;19.30;18.47;;;20.10;54.20;;;;;;4999372;28;20447;-65
2024/01/02 08:17:24;;;;;;;20.10;18.93;;;20.10;54.10;;;;;;4998563;28;20443;-65
2024/01/02 08:19:51;;;;;;;20.77;19.80;;;20.10;54.10;;;;;;4998138;28;20447;-65
2024/01/02 08:22:19;;;;;;;20.13;19.47;;;20.10;54.00;;;;;;4997835;28;20466;-65
2024/01/02 08:24:48;;;;;;;20.00;19.10;;;20.10;53.90;;;;;;4998340;28;20482;-66
2024/01/02 08:27:15;;;;;;;20.60;19.90;;;20.10;53.80;;;;;;4996883;28;20451;-66
2024/01/02 08:29:42;;;;;;;19.70;19.10;;;20.10;53.80;;;;;;4996457;28;20497;-65
2024/01/02 08:32:09;;;;;;;20.40;19.70;;;20.10;53.70;;;;;;4996460;28;20494;-66
2024/01/02 08:34:35;;;;;;;20.30;19.60;;;20.00;53.60;;;;;;4997027;28;20466;-65
2024/01/02 08:37:03;;;;;;;21.33;20.40;;;20.00;53.60;;;;;;4996920;28;20490;-66
2024/01/02 08:39:30;;;;;;;19.80;19.20;;;20.10;53.60;;;;;;4995586;28;20820;-66
2024/01/02 08:41:58;;;;;;;19.57;18.93;;;20.00;53.50;;;;;;4995412;28;20526;-65
2024/01/02 08:44:25;;;;;;;18.73;18.13;;;20.00;53.40;;;;;;4995718;28;20474;-65
2024/01/02 08:46:52;;;;;;;19.43;18.93;;;20.00;53.40;;;;;;4996356;28;20478;-65
2024/01/02 08:49:19;;;;;;;21.00;19.90;;;20.00;53.40;;;;;;4996098;28;20478;-65
2024/01/02 08:51:45;;;;;;;20.63;19.93;;;20.00;53.30;;;;;;4996583;28;20502;-65
2024/01/02 08:54:12;;;;;;;20.37;19.47;;;20.00;53.30;;;;;;4998388;28;20483;-65
2024/01/02 08:56:39;;;;;;;19.70;19.00;;;20.00;53.30;;;;;;4998115;28;20479;-64
2024/01/02 08:59:08;;;;;;;20.00;19.30;;;20.00;53.20;;;;;;4997161;28;20964;-65
2024/01/02 09:01:34;;;;;;;20.70;20.00;;;20.00;53.20;;;;;;4996574;28;20507;-65
2024/01/02 09:04:01;;;;;;;19.17;18.57;;;20.00;53.20;;;;;;4996065;28;20478;-65
2024/01/02 09:06:28;;;;;;;19.70;19.00;;;20.00;53.10;;;;;;4995782;28;20464;-65
2024/01/02 09:08:57;;;;;;;20.40;19.70;;;20.00;53.20;;;;;;4995963;28;20567;-65
2024/01/02 09:11:24;;;;;;;20.30;19.50;;;20.00;53.10;;;;;;4995657;28;20564;-64
2024/01/02 09:13:51;;;;;;;19.90;19.20;;;20.00;53.10;;;;;;4995454;28;20561;-66
2024/01/02 09:16:19;;;;;;;20.27;19.67;;;19.90;53.00;;;;;;4995315;28;20482;-65
2024/01/02 09:18:46;;;;;;;19.83;19.13;;;20.00;53.00;;;;;;4995062;28;20987;-65
2024/01/02 09:21:13;;;;;;;18.73;18.13;;;20.00;53.00;;;;;;4994507;28;20901;-65
2024/01/02 09:23:40;;;;;;;19.20;18.60;;;20.00;52.90;;;;;;4994437;28;20483;-65
2024/01/02 09:26:08;;;;;;;18.53;18.03;;;19.90;52.80;;;;;;4994824;28;20483;-65
2024/01/02 09:28:37;;;;;;;19.40;18.80;;;19.90;52.80;;;;;;4995059;28;20447;-65
2024/01/02 09:31:04;;;;;;;20.10;19.20;;;19.90;52.80;;;;;;4994450;28;20479;-65
2024/01/02 09:33:32;;;;;;;18.43;17.83;;;19.90;52.80;;;;;;4995178;28;20925;-65
2024/01/02 09:35:59;;;;;;;20.00;19.30;;;19.90;52.80;;;;;;4995667;28;20478;-65
2024/01/02 09:38:26;;;;;;;19.73;19.13;;;19.90;52.80;;;;;;4995296;28;20967;-65
2024/01/02 09:41:16;;;;;;;18.23;17.73;;;19.90;52.80;;;;;;4995198;28;20815;-66
2024/01/02 09:43:58;;;;;;;18.77;18.07;;;19.90;52.80;;;;;;4994420;28;20467;-65
2024/01/02 09:46:37;;;;;;;18.40;17.80;;;19.90;52.70;;;;;;4994404;28;20482;-65
2024/01/02 09:49:26;;;;;;;19.27;18.67;;;19.90;52.70;;;;;;4994989;28;20474;-66
2024/01/02 09:52:12;;;;;;;18.70;17.93;;;19.90;52.70;;;;;;4995844;28;20491;-65
2024/01/02 09:54:50;;;;;;;19.27;18.67;;;19.90;52.70;;;;;;4996227;28;20514;-65
2024/01/02 09:57:24;;;;;;;20.00;19.40;;;19.90;52.70;;;;;;4995902;28;20445;-65
2024/01/02 10:00:03;;;;;;;20.20;19.60;;;19.90;52.70;;;;;;4995875;28;20491;-65
2024/01/02 10:03:01;;;;;;;19.80;19.10;;;19.90;52.70;;;;;;4995772;28;20493;-65
2024/01/02 10:05:48;;;;;;;21.00;20.40;;;19.90;52.70;;;;;;4992934;28;20454;-66
2024/01/02 10:08:33;;;;;;;20.37;19.77;;;19.90;52.70;;;;;;4995425;28;20451;-65
2024/01/02 10:11:11;;;;;;;18.93;18.33;;;19.90;52.70;;;;;;4994231;28;20958;-65
2024/01/02 10:13:49;;;;;;;17.90;17.40;;;19.90;52.70;;;;;;5015065;23;20518;-68
2024/01/02 10:16:26;;;;;;;20.03;19.43;;;19.90;52.70;;;;;;4992013;28;20819;-68
2024/01/02 10:19:03;;;;;;;19.10;18.50;;;19.90;52.70;;;;;;4984176;28;20481;-69
2024/01/02 10:21:41;;;;;;;19.40;18.90;;;19.90;52.70;;;;;;4991811;28;20867;-68
2024/01/02 10:24:19;;;;;;;19.67;19.07;;;19.90;52.60;;;;;;4972495;28;20471;-68
2024/01/02 10:27:04;;;;;;;20.90;20.20;;;19.90;52.60;;;;;;4972436;28;20482;-67
2024/01/02 10:29:47;;;;;;;22.20;21.50;;;19.90;52.60;;;;;;4972303;28;20941;-68
2024/01/02 10:32:19;;;;;;;20.60;19.93;;;19.90;52.60;;;;;;4972460;28;20503;-68
2024/01/02 10:34:54;;;;;;;20.17;19.57;;;19.90;52.60;;;;;;4972318;28;20570;-68
2024/01/02 10:37:29;;;;;;;20.50;19.90;;;19.80;52.60;;;;;;4972375;28;20475;-68
2024/01/02 10:40:06;;;;;;;19.10;18.60;;;19.80;52.60;;;;;;4965027;28;20479;-68
2024/01/02 10:42:48;;;;;;;20.63;19.93;;;19.90;52.60;;;;;;4972150;28;21027;-68
2024/01/02 10:45:21;;;;;;;19.83;19.23;;;19.80;52.50;;;;;;4972304;28;20471;-68
2024/01/02 10:48:03;;;;;;;19.67;19.07;;;19.90;52.60;;;;;;4972176;28;20447;-68
2024/01/02 10:50:37;;;;;;;19.50;18.70;;;19.80;52.50;;;;;;4972151;28;20475;-68
2024/01/02 10:53:23;;;;;;;20.40;19.70;;;19.80;52.50;;;;;;4972170;28;20498;-69
2024/01/02 10:55:54;;;;;;;20.60;20.00;;;19.80;52.50;;;;;;4972129;28;20858;-68
2024/01/02 10:58:23;;;;;;;20.27;19.67;;;19.80;52.60;;;;;;4972169;28;20476;-69
2024/01/02 11:00:59;;;;;;;18.87;18.33;;;19.80;52.50;;;;;;4971906;28;20475;-68
2024/01/02 11:03:29;;;;;;;19.73;19.13;;;19.80;52.50;;;;;;4972174;28;20510;-68
2024/01/02 11:06:05;;;;;;;19.23;18.73;;;19.80;52.50;;;;;;4964510;28;20472;-68
2024/01/02 11:08:45;;;;;;;19.90;19.30;;;19.80;52.50;;;;;;4972019;28;20448;-69
2024/01/02 11:11:14;;;;;;;20.80;20.20;;;19.80;52.60;;;;;;4972002;28;20478;-68
2024/01/02 11:13:42;;;;;;;20.43;19.83;;;19.80;52.50;;;;;;4971623;28;20488;-69
2024/01/02 11:16:15;;;;;;;18.90;18.40;;;19.80;52.60;;;;;;4972064;28;20835;-69
2024/01/02 11:18:47;;;;;;;19.87;19.27;;;19.80;52.50;;;;;;4971985;28;20475;-68
2024/01/02 11:21:22;;;;;;;20.10;19.50;;;19.80;52.50;;;;;;4974223;28;20486;-69
2024/01/02 11:23:54;;;;;;;19.97;19.37;;;19.80;52.50;;;;;;4975315;28;20487;-68
2024/01/02 11:26:24;;;;;;;20.23;19.63;;;19.80;52.50;;;;;;4974792;28;20851;-68
2024/01/02 11:28:53;;;;;;;26.33;25.53;;;19.80;52.50;;;;;;4975252;28;20467;-68
2024/01/02 11:31:22;;;;;;;24.33;23.53;;;19.90;53.50;;;;;;4975655;28;20925;-65
2024/01/02 11:34:04;;;;;;;24.13;23.33;;;20.00;53.80;;;;;;4975240;28;20570;-72
2024/01/02 11:36:55;;;;;;;23.27;22.57;;;20.00;54.60;;;;;;4971466;28;20667;-70
2024/01/02 11:39:34;;;;;;;22.60;21.90;;;20.10;54.60;;;;;;4975473;28;21004;-69
2024/01/02 11:42:11;;;;;;;22.97;22.27;;;20.10;54.70;;;;;;4966733;28;20473;-68
2024/01/02 11:44:54;;;;;;;22.10;21.40;;;20.20;54.60;;;;;;4974640;28;20443;-68
2024/01/02 11:47:37;;;;;;;20.45;19.85;;;20.20;54.50;;;;;;4957228;28;20480;-68
2024/01/02 11:50:09;;;;;;;25.00;24.20;;;20.30;54.40;;;;;;4968565;28;20623;-69
2024/01/02 11:53:15;;;;;;;18.60;18.10;;;20.40;54.10;;;;;;4971766;28;20468;-68
2024/01/02 11:55:50;;;;;;;18.40;17.90;;;20.50;54.50;;;;;;4974141;28;20478;-67
2024/01/02 11:58:29;;;;;;;19.13;18.63;;;20.60;54.50;;;;;;4974977;28;20447;-68
2024/01/02 12:01:08;;;;;;;18.70;18.10;;;20.50;54.60;;;;;;4966914;28;20447;-69
2024/01/02 12:03:49;;;;;;;18.53;18.03;;;20.60;54.60;;;;;;4974296;28;20491;-67
2024/01/02 12:06:27;;;;;;;19.03;18.50;;;20.60;54.40;;;;;;4973597;28;20455;-69
2024/01/02 12:09:04;;;;;;;19.10;18.50;;;20.70;54.20;;;;;;4965341;28;20463;-68
2024/01/02 12:11:40;;;;;;;18.80;18.30;;;20.70;54.30;;;;;;4974120;28;20455;-69
2024/01/02 12:14:25;;;;;;;18.70;18.20;;;20.70;54.30;;;;;;4974192;28;20471;-68
2024/01/02 12:16:59;;;;;;;18.50;18.00;;;20.70;54.50;;;;;;4974712;28;20873;-70
2024/01/02 12:19:30;;;;;;;17.87;17.37;;;20.80;54.30;;;;;;4974666;28;20533;-68
2024/01/02 12:22:00;;;;;;;18.40;17.90;;;20.80;54.20;;;;;;4973551;28;20487;-70
2024/01/02 12:24:31;;;;;;;18.60;18.10;;;20.80;54.20;;;;;;4974426;28;20475;-69
2024/01/02 12:27:01;;;;;;;18.00;17.50;;;20.80;54.10;;;;;;4966778;28;20471;-64
2024/01/02 12:29:37;;;;;;;18.67;18.17;;;20.90;54.10;;;;;;4974430;28;20478;-65
2024/01/02 12:32:13;;;;;;;18.73;18.13;;;20.90;54.10;;;;;;4974088;28;20491;-64
2024/01/02 12:34:48;;;;;;;18.53;18.03;;;20.90;54.00;;;;;;4973824;28;20514;-67
2024/01/02 12:37:24;;;;;;;18.20;17.70;;;21.00;54.10;;;;;;4974392;28;20443;-69
2024/01/02 12:39:59;;;;;;;18.77;18.27;;;20.90;54.00;;;;;;4972918;28;20471;-70